Time;durP1;ratioP1;P1;durP2;ratioP2;P2;SDS_P1;SDS_P2;PMS_P1;PMS_P2;Temp;Humidity;BMP_temperature;BMP_pressure;BME280_temperature;BME280_humidity;BME280_pressure;Samples;Min_cycle;Max_cycle;Signal;HPM_P1;HPM_P2
2021/07/30 00:02:03;;;;;;;13.10;8.97;;;18.60;97.60;;;;;;5007022;28;20435;-66
2021/07/30 00:04:30;;;;;;;8.43;7.60;;;18.60;97.60;;;;;;5011261;28;20523;-67
2021/07/30 00:06:57;;;;;;;9.57;7.70;;;18.60;97.40;;;;;;5011885;28;20476;-67
2021/07/30 00:09:24;;;;;;;9.57;7.73;;;18.60;97.30;;;;;;5011923;28;20490;-67
2021/07/30 00:11:51;;;;;;;11.27;6.40;;;18.60;97.30;;;;;;5011309;28;20450;-67
2021/07/30 00:14:19;;;;;;;11.70;7.77;;;18.50;96.90;;;;;;5011795;28;20956;-68
2021/07/30 00:16:47;;;;;;;9.27;8.30;;;18.50;97.00;;;;;;5011834;28;20530;-67
2021/07/30 00:19:14;;;;;;;8.80;7.90;;;18.40;97.00;;;;;;5010887;28;20488;-67
2021/07/30 00:21:41;;;;;;;9.13;7.97;;;18.40;97.10;;;;;;5011377;28;20525;-67
2021/07/30 00:24:08;;;;;;;9.27;8.13;;;18.40;97.20;;;;;;5011700;28;20920;-66
2021/07/30 00:26:35;;;;;;;10.07;8.03;;;18.30;97.30;;;;;;5011628;28;20439;-66
2021/07/30 00:29:04;;;;;;;9.27;8.27;;;18.30;97.30;;;;;;5011174;28;20506;-66
2021/07/30 00:31:33;;;;;;;9.80;8.67;;;18.40;97.20;;;;;;5011521;28;20439;-66
2021/07/30 00:34:01;;;;;;;10.50;9.07;;;18.30;97.10;;;;;;5011503;28;20534;-67
2021/07/30 00:36:28;;;;;;;11.80;7.83;;;18.30;97.00;;;;;;5011361;28;20841;-66
2021/07/30 00:38:55;;;;;;;9.00;7.90;;;18.30;97.10;;;;;;5011393;28;20582;-67
2021/07/30 00:41:22;;;;;;;9.80;8.43;;;18.30;97.20;;;;;;5011407;28;20933;-67
2021/07/30 00:43:49;;;;;;;8.70;7.70;;;18.30;97.10;;;;;;5011399;28;20516;-67
2021/07/30 00:46:16;;;;;;;10.37;7.90;;;18.20;97.20;;;;;;5011473;28;20521;-66
2021/07/30 00:48:44;;;;;;;9.80;7.37;;;18.20;97.10;;;;;;5011407;28;21003;-66
2021/07/30 00:51:14;;;;;;;9.60;8.60;;;18.20;97.00;;;;;;5011336;28;20435;-67
2021/07/30 00:53:42;;;;;;;8.80;7.40;;;18.10;96.90;;;;;;5011011;28;20493;-66
2021/07/30 00:56:09;;;;;;;10.50;7.60;;;18.10;96.70;;;;;;5011362;28;20788;-66
2021/07/30 00:58:36;;;;;;;10.30;8.87;;;18.00;96.80;;;;;;5011079;28;20570;-66
2021/07/30 01:01:03;;;;;;;10.07;7.50;;;18.00;97.40;;;;;;5010915;28;20530;-66
2021/07/30 01:03:31;;;;;;;8.80;7.90;;;18.00;97.00;;;;;;5010881;28;20463;-67
2021/07/30 01:05:58;;;;;;;7.77;6.87;;;18.00;97.10;;;;;;5010679;28;20446;-67
2021/07/30 01:08:27;;;;;;;10.40;8.20;;;18.00;97.10;;;;;;5010681;28;20443;-67
2021/07/30 01:10:54;;;;;;;14.00;8.97;;;17.90;97.10;;;;;;5010905;28;20447;-66
2021/07/30 01:13:21;;;;;;;8.40;7.50;;;17.80;97.20;;;;;;5010852;28;20447;-69
2021/07/30 01:15:48;;;;;;;8.10;6.87;;;17.80;97.40;;;;;;5010792;28;20546;-67
2021/07/30 01:18:15;;;;;;;9.47;7.77;;;17.80;97.40;;;;;;5010940;28;20487;-66
2021/07/30 01:20:44;;;;;;;9.20;7.10;;;17.80;97.40;;;;;;5010677;28;20534;-67
2021/07/30 01:23:12;;;;;;;12.03;8.93;;;17.80;97.50;;;;;;5010876;28;20513;-66
2021/07/30 01:25:44;;;;;;;11.10;8.10;;;17.80;97.50;;;;;;5010788;28;20518;-67
2021/07/30 01:28:11;;;;;;;8.80;7.87;;;17.80;97.50;;;;;;5010274;28;20573;-67
2021/07/30 01:30:38;;;;;;;8.40;7.50;;;17.80;97.50;;;;;;5010689;28;20438;-66
2021/07/30 01:33:05;;;;;;;10.27;9.23;;;17.80;97.40;;;;;;5010735;28;20532;-66
2021/07/30 01:35:31;;;;;;;7.97;7.17;;;17.70;97.40;;;;;;5010295;28;20449;-67
2021/07/30 01:38:00;;;;;;;12.10;8.40;;;17.70;97.40;;;;;;5010546;28;20526;-67
2021/07/30 01:40:28;;;;;;;9.23;7.73;;;17.70;97.40;;;;;;5010483;28;20527;-67
2021/07/30 01:42:55;;;;;;;13.30;7.87;;;17.70;97.50;;;;;;5010409;28;20517;-66
2021/07/30 01:45:22;;;;;;;12.27;9.43;;;17.70;97.70;;;;;;5010242;28;20525;-67
2021/07/30 01:47:51;;;;;;;12.60;11.30;;;17.60;97.80;;;;;;5010067;28;20514;-67
2021/07/30 01:50:18;;;;;;;10.60;8.20;;;17.60;97.70;;;;;;5010116;28;20550;-67
2021/07/30 01:52:45;;;;;;;9.53;8.30;;;17.60;97.60;;;;;;5010422;28;20463;-66
2021/07/30 01:55:12;;;;;;;12.00;8.23;;;17.60;97.70;;;;;;5010373;28;20610;-66
2021/07/30 01:57:41;;;;;;;12.00;7.97;;;17.60;97.70;;;;;;5010273;28;20495;-67
2021/07/30 02:00:08;;;;;;;9.53;8.33;;;17.60;98.00;;;;;;5010055;28;20607;-67
2021/07/30 02:02:35;;;;;;;9.43;7.13;;;17.60;98.00;;;;;;5010232;28;20924;-66
2021/07/30 02:05:05;;;;;;;11.67;7.93;;;17.50;98.00;;;;;;5010278;28;20470;-67
2021/07/30 02:07:32;;;;;;;9.20;7.90;;;17.50;98.20;;;;;;5010041;28;20462;-66
2021/07/30 02:09:59;;;;;;;9.53;8.10;;;17.50;98.20;;;;;;5009990;28;20434;-67
2021/07/30 02:12:26;;;;;;;9.20;7.57;;;17.60;98.00;;;;;;5010137;28;20517;-67
2021/07/30 02:14:53;;;;;;;8.30;7.43;;;17.50;97.80;;;;;;5010091;28;20530;-68
2021/07/30 02:17:20;;;;;;;9.00;8.03;;;17.50;97.90;;;;;;5010136;28;20439;-67
2021/07/30 02:19:47;;;;;;;8.80;7.43;;;17.50;98.00;;;;;;5009941;28;20572;-67
2021/07/30 02:22:14;;;;;;;9.90;8.47;;;17.50;98.00;;;;;;5010167;28;20533;-66
2021/07/30 02:24:43;;;;;;;10.90;8.27;;;17.40;98.00;;;;;;5010061;28;20473;-67
2021/07/30 02:27:10;;;;;;;12.03;8.90;;;17.40;98.00;;;;;;5009897;28;20521;-67
2021/07/30 02:29:37;;;;;;;9.10;8.10;;;17.40;98.30;;;;;;5009589;28;20477;-66
2021/07/30 02:32:06;;;;;;;10.50;8.30;;;17.40;98.30;;;;;;5009895;28;20439;-66
2021/07/30 02:34:33;;;;;;;8.50;7.13;;;17.40;98.40;;;;;;5009662;28;20526;-66
2021/07/30 02:37:02;;;;;;;7.90;6.60;;;17.40;98.40;;;;;;5009881;28;20474;-67
2021/07/30 02:39:29;;;;;;;8.60;6.80;;;17.40;98.50;;;;;;5009619;28;20573;-67
2021/07/30 02:41:56;;;;;;;9.80;7.53;;;17.40;98.30;;;;;;5010250;28;20983;-67
2021/07/30 02:44:23;;;;;;;10.40;7.83;;;17.40;98.50;;;;;;5013211;28;20492;-67
2021/07/30 02:46:50;;;;;;;8.10;7.03;;;17.40;98.50;;;;;;5013050;28;20470;-66
2021/07/30 02:49:18;;;;;;;9.07;7.90;;;17.40;98.60;;;;;;5013290;28;20474;-66
2021/07/30 02:51:45;;;;;;;11.13;7.33;;;17.40;98.70;;;;;;5013090;28;20518;-67
2021/07/30 02:54:12;;;;;;;9.10;7.37;;;17.40;98.50;;;;;;5012997;28;20836;-67
2021/07/30 02:56:39;;;;;;;8.00;7.13;;;17.40;98.40;;;;;;5012932;28;20530;-66
2021/07/30 02:59:06;;;;;;;9.50;6.97;;;17.40;98.30;;;;;;5012933;28;20486;-67
2021/07/30 03:01:33;;;;;;;13.23;7.23;;;17.40;98.30;;;;;;5012804;28;20973;-67
2021/07/30 03:04:00;;;;;;;9.30;7.50;;;17.40;98.40;;;;;;5012799;28;20446;-66
2021/07/30 03:06:28;;;;;;;9.30;6.90;;;17.40;98.40;;;;;;5012914;28;20443;-66
2021/07/30 03:08:57;;;;;;;8.90;7.90;;;17.40;98.30;;;;;;5012675;28;20529;-67
2021/07/30 03:11:23;;;;;;;9.87;7.97;;;17.40;98.30;;;;;;5012711;28;20452;-67
2021/07/30 03:13:50;;;;;;;9.93;7.17;;;17.40;98.40;;;;;;5012646;28;20518;-67
2021/07/30 03:16:17;;;;;;;13.40;7.33;;;17.40;98.40;;;;;;5012558;28;20447;-68
2021/07/30 03:18:44;;;;;;;9.33;7.23;;;17.30;98.30;;;;;;5012618;28;20474;-66
2021/07/30 03:21:11;;;;;;;8.13;7.27;;;17.30;98.40;;;;;;5012773;28;20478;-67
2021/07/30 03:23:40;;;;;;;8.60;7.47;;;17.30;98.50;;;;;;5012533;28;20482;-67
2021/07/30 03:26:07;;;;;;;8.57;7.70;;;17.30;98.40;;;;;;5012506;28;20523;-67
2021/07/30 03:28:33;;;;;;;9.77;7.87;;;17.30;98.50;;;;;;5012222;28;20501;-66
2021/07/30 03:31:01;;;;;;;12.93;8.03;;;17.30;98.50;;;;;;5012377;28;20526;-67
2021/07/30 03:33:28;;;;;;;8.50;7.07;;;17.30;98.50;;;;;;5012468;28;20439;-66
2021/07/30 03:35:56;;;;;;;10.50;7.53;;;17.30;98.50;;;;;;5012405;28;20828;-66
2021/07/30 03:38:23;;;;;;;8.70;7.00;;;17.30;98.60;;;;;;5012378;28;20808;-67
2021/07/30 03:40:51;;;;;;;10.57;7.77;;;17.30;98.60;;;;;;5012033;28;20574;-69
2021/07/30 03:43:18;;;;;;;9.80;8.07;;;17.30;98.70;;;;;;5012330;28;20446;-67
2021/07/30 03:45:45;;;;;;;9.50;8.40;;;17.20;98.70;;;;;;5012264;28;20526;-67
2021/07/30 03:48:12;;;;;;;9.77;7.77;;;17.20;98.80;;;;;;5012243;28;20447;-67
2021/07/30 03:50:45;;;;;;;10.50;7.40;;;17.10;99.00;;;;;;5012027;28;20496;-66
2021/07/30 03:53:12;;;;;;;10.30;8.20;;;17.10;99.10;;;;;;5011411;28;20451;-66
2021/07/30 03:55:39;;;;;;;9.97;8.20;;;17.10;99.10;;;;;;5011799;28;20847;-66
2021/07/30 03:58:08;;;;;;;9.30;7.43;;;17.20;99.40;;;;;;5011933;28;20477;-67
2021/07/30 04:00:35;;;;;;;9.90;8.10;;;17.30;99.40;;;;;;5011852;28;20566;-67
2021/07/30 04:03:02;;;;;;;8.33;7.53;;;17.30;99.30;;;;;;5012178;28;20861;-67
2021/07/30 04:05:28;;;;;;;8.37;7.30;;;17.40;99.10;;;;;;5012220;28;20468;-67
2021/07/30 04:07:57;;;;;;;19.53;9.03;;;17.40;99.20;;;;;;5012186;28;20447;-68
2021/07/30 04:10:26;;;;;;;8.70;7.70;;;17.40;99.30;;;;;;5012096;28;20967;-67
2021/07/30 04:12:53;;;;;;;8.40;7.60;;;17.50;99.20;;;;;;5012149;28;20450;-67
2021/07/30 04:15:22;;;;;;;8.83;7.70;;;17.50;99.20;;;;;;5012021;28;20470;-67
2021/07/30 04:17:50;;;;;;;9.40;6.70;;;17.50;99.30;;;;;;5012184;28;20548;-67
2021/07/30 04:20:20;;;;;;;9.10;7.63;;;17.50;99.10;;;;;;5011945;28;21022;-67
2021/07/30 04:22:47;;;;;;;10.50;7.97;;;17.50;99.00;;;;;;5011958;28;20530;-66
2021/07/30 04:25:14;;;;;;;9.37;8.37;;;17.50;99.00;;;;;;5011815;28;20496;-67
2021/07/30 04:27:41;;;;;;;9.50;8.30;;;17.50;98.70;;;;;;5011659;28;20526;-67
2021/07/30 04:30:09;;;;;;;9.77;8.47;;;17.50;98.70;;;;;;5011603;28;20558;-66
2021/07/30 04:32:37;;;;;;;7.80;6.80;;;17.40;98.70;;;;;;5011647;28;20442;-66
2021/07/30 04:35:05;;;;;;;11.60;7.30;;;17.40;99.10;;;;;;5011749;28;20434;-66
2021/07/30 04:37:32;;;;;;;11.40;7.67;;;17.40;99.10;;;;;;5011751;28;20527;-66
2021/07/30 04:39:59;;;;;;;9.07;8.07;;;17.40;99.20;;;;;;5011795;28;20522;-67
2021/07/30 04:42:27;;;;;;;13.03;8.60;;;17.40;99.10;;;;;;5011595;28;20854;-66
2021/07/30 04:44:53;;;;;;;8.70;7.40;;;17.50;99.20;;;;;;5011581;28;20500;-67
2021/07/30 04:47:20;;;;;;;13.00;8.30;;;17.50;99.00;;;;;;5011636;28;20434;-66
2021/07/30 04:49:49;;;;;;;11.10;8.37;;;17.50;99.20;;;;;;5011439;28;20442;-68
2021/07/30 04:52:16;;;;;;;10.00;8.20;;;17.40;99.60;;;;;;5011265;28;20470;-67
2021/07/30 04:54:43;;;;;;;9.33;7.93;;;17.50;99.90;;;;;;5011573;28;20530;-67
2021/07/30 04:57:10;;;;;;;10.07;7.90;;;17.60;99.90;;;;;;5011218;28;20482;-67
2021/07/30 04:59:37;;;;;;;9.60;7.67;;;17.70;99.90;;;;;;5011127;28;20571;-67
2021/07/30 05:02:09;;;;;;;9.57;8.57;;;17.70;99.90;;;;;;5011279;28;20931;-67
2021/07/30 05:04:36;;;;;;;9.40;8.13;;;17.70;99.60;;;;;;5010893;28;20485;-67
2021/07/30 05:07:05;;;;;;;10.00;8.53;;;17.70;99.70;;;;;;5011371;28;20500;-66
2021/07/30 05:09:33;;;;;;;10.27;8.53;;;17.80;99.50;;;;;;5010986;28;20493;-66
2021/07/30 05:12:00;;;;;;;10.17;8.47;;;17.90;99.70;;;;;;5011233;28;20470;-67
2021/07/30 05:14:27;;;;;;;10.27;8.00;;;18.00;99.80;;;;;;5000789;28;20454;-68
2021/07/30 05:16:56;;;;;;;9.50;8.50;;;18.00;99.60;;;;;;4991346;28;20454;-67
2021/07/30 05:19:23;;;;;;;9.03;7.77;;;18.20;99.70;;;;;;4991082;28;20489;-67
2021/07/30 05:21:51;;;;;;;12.37;8.90;;;18.20;99.50;;;;;;4989911;28;20443;-66
2021/07/30 05:24:21;;;;;;;9.23;7.63;;;18.10;99.70;;;;;;4990407;28;20443;-67
2021/07/30 05:26:54;;;;;;;14.33;8.97;;;18.20;99.90;;;;;;4994994;28;20462;-67
2021/07/30 05:29:26;;;;;;;9.37;8.27;;;18.30;99.90;;;;;;5003265;28;20903;-67
2021/07/30 05:31:55;;;;;;;11.30;8.97;;;18.40;99.90;;;;;;5006582;28;20455;-67
2021/07/30 05:34:22;;;;;;;10.20;7.60;;;18.50;99.80;;;;;;5001991;28;20443;-66
2021/07/30 05:36:54;;;;;;;10.40;8.67;;;18.60;99.60;;;;;;5006850;28;20496;-67
2021/07/30 05:39:23;;;;;;;8.67;7.77;;;18.70;99.60;;;;;;4998853;28;20522;-66
2021/07/30 05:41:54;;;;;;;11.00;9.70;;;18.80;99.50;;;;;;4991983;28;20452;-66
2021/07/30 05:44:21;;;;;;;13.73;10.20;;;18.90;99.60;;;;;;5004149;28;20436;-68
2021/07/30 05:46:48;;;;;;;16.30;12.50;;;18.90;99.30;;;;;;4993084;28;20444;-66
2021/07/30 05:49:15;;;;;;;17.80;14.00;;;19.00;99.20;;;;;;4991344;28;20440;-67
2021/07/30 05:51:46;;;;;;;15.23;12.40;;;19.00;99.30;;;;;;4992494;28;20485;-66
2021/07/30 05:54:13;;;;;;;15.67;11.40;;;19.10;99.60;;;;;;5004277;28;20848;-66
2021/07/30 05:56:42;;;;;;;16.77;10.70;;;19.20;99.70;;;;;;5003615;28;20508;-67
2021/07/30 05:59:09;;;;;;;10.47;9.37;;;19.40;99.50;;;;;;5003654;28;20765;-67
2021/07/30 06:01:38;;;;;;;16.47;10.30;;;19.50;99.40;;;;;;4991446;28;20479;-67
2021/07/30 06:04:06;;;;;;;14.67;10.90;;;19.50;98.90;;;;;;4989877;28;20530;-67
2021/07/30 06:06:38;;;;;;;14.13;9.93;;;19.60;98.80;;;;;;4994922;28;20440;-67
2021/07/30 06:09:13;;;;;;;11.00;8.77;;;19.70;98.90;;;;;;4991448;28;20447;-67
2021/07/30 06:11:46;;;;;;;9.50;8.50;;;19.80;98.80;;;;;;5007280;28;20931;-67
2021/07/30 06:14:15;;;;;;;14.43;9.40;;;19.90;98.50;;;;;;5005859;28;20447;-69
2021/07/30 06:16:45;;;;;;;10.53;9.00;;;20.00;98.50;;;;;;5050281;28;20427;-67
2021/07/30 06:19:14;;;;;;;9.20;8.30;;;20.10;98.40;;;;;;5010354;28;20929;-66
2021/07/30 06:21:46;;;;;;;9.97;8.93;;;20.20;98.20;;;;;;5009496;28;20558;-67
2021/07/30 06:24:17;;;;;;;12.60;9.43;;;20.30;97.80;;;;;;5024394;28;21025;-68
2021/07/30 06:26:46;;;;;;;10.77;9.10;;;20.40;97.80;;;;;;4997823;28;20802;-67
2021/07/30 06:29:16;;;;;;;11.10;8.73;;;20.40;97.40;;;;;;5001042;28;20466;-68
2021/07/30 06:31:43;;;;;;;13.60;9.27;;;20.50;97.60;;;;;;5007634;28;20917;-69
2021/07/30 06:34:11;;;;;;;14.50;9.37;;;20.70;97.80;;;;;;5000654;28;20447;-67
2021/07/30 06:36:38;;;;;;;10.77;9.67;;;20.90;98.00;;;;;;5013353;28;20449;-67
2021/07/30 06:39:07;;;;;;;10.57;8.57;;;21.20;97.90;;;;;;5013198;28;20530;-67
2021/07/30 06:41:34;;;;;;;11.20;9.17;;;21.30;97.10;;;;;;5013008;28;20489;-67
2021/07/30 06:44:03;;;;;;;10.40;9.30;;;21.40;97.10;;;;;;5013169;28;20442;-67
2021/07/30 06:46:30;;;;;;;10.40;9.30;;;21.50;96.70;;;;;;5013041;28;20527;-67
2021/07/30 06:48:57;;;;;;;12.93;9.40;;;21.60;96.30;;;;;;5013075;28;20525;-67
2021/07/30 06:51:24;;;;;;;11.13;9.37;;;21.70;96.10;;;;;;5013296;28;20438;-68
2021/07/30 06:53:51;;;;;;;12.40;9.53;;;21.80;96.00;;;;;;5013129;28;20435;-67
2021/07/30 06:56:18;;;;;;;13.30;9.07;;;21.90;95.40;;;;;;5013228;28;20969;-68
2021/07/30 06:58:46;;;;;;;10.50;8.97;;;22.00;95.00;;;;;;5013093;28;20530;-67
2021/07/30 07:01:14;;;;;;;12.43;9.83;;;22.20;94.70;;;;;;5012900;28;20482;-67
2021/07/30 07:03:41;;;;;;;10.87;9.13;;;22.30;94.70;;;;;;5013241;28;20443;-67
2021/07/30 07:06:14;;;;;;;11.10;9.90;;;22.30;94.30;;;;;;5013041;28;20534;-67
2021/07/30 07:08:43;;;;;;;9.77;8.40;;;22.40;93.60;;;;;;5013047;28;20450;-67
2021/07/30 07:11:11;;;;;;;9.37;8.37;;;22.30;93.60;;;;;;5013119;28;20439;-67
2021/07/30 07:13:38;;;;;;;10.97;9.37;;;22.10;93.50;;;;;;5012982;28;20530;-67
2021/07/30 07:16:06;;;;;;;10.63;9.53;;;22.00;93.60;;;;;;5012750;28;20435;-68
2021/07/30 07:18:34;;;;;;;10.47;9.13;;;22.00;93.50;;;;;;5012848;28;20518;-67
2021/07/30 07:21:01;;;;;;;10.17;9.17;;;22.00;94.00;;;;;;5013010;28;20571;-67
2021/07/30 07:23:28;;;;;;;11.10;9.57;;;22.10;94.50;;;;;;5012784;28;20530;-67
2021/07/30 07:25:55;;;;;;;11.53;9.70;;;22.40;94.80;;;;;;5012891;28;20525;-68
2021/07/30 07:28:22;;;;;;;9.87;8.87;;;22.70;94.70;;;;;;5012297;28;20561;-68
2021/07/30 07:30:53;;;;;;;8.53;7.63;;;22.90;93.70;;;;;;5012757;28;20526;-68
2021/07/30 07:33:20;;;;;;;9.57;8.57;;;23.00;93.30;;;;;;5012732;28;20442;-68
2021/07/30 07:35:49;;;;;;;9.70;8.60;;;23.20;93.20;;;;;;5012868;28;20447;-67
2021/07/30 07:38:16;;;;;;;9.03;8.00;;;23.30;93.50;;;;;;5012656;28;20964;-67
2021/07/30 07:40:46;;;;;;;10.43;8.00;;;23.40;92.90;;;;;;5012626;28;20514;-66
2021/07/30 07:43:13;;;;;;;9.97;7.97;;;23.60;92.30;;;;;;5012679;28;20782;-67
2021/07/30 07:45:40;;;;;;;9.27;8.30;;;23.80;90.90;;;;;;5012610;28;21007;-67
2021/07/30 07:48:08;;;;;;;9.10;8.20;;;24.10;91.10;;;;;;5012607;28;20471;-67
2021/07/30 07:50:37;;;;;;;10.30;8.90;;;24.20;90.40;;;;;;5012488;28;20526;-66
2021/07/30 07:53:15;;;;;;;10.00;8.20;;;24.30;89.70;;;;;;5012418;28;20526;-67
2021/07/30 07:55:44;;;;;;;10.50;8.30;;;24.30;89.00;;;;;;5012520;28;20819;-67
2021/07/30 07:58:13;;;;;;;9.93;8.93;;;24.30;90.40;;;;;;5012250;28;20451;-67
2021/07/30 08:00:41;;;;;;;8.73;7.83;;;24.40;89.80;;;;;;5012241;28;20540;-67
2021/07/30 08:03:08;;;;;;;8.33;7.00;;;24.40;88.30;;;;;;5012104;28;20879;-67
2021/07/30 08:05:37;;;;;;;9.97;7.97;;;24.40;90.20;;;;;;5012233;28;20527;-67
2021/07/30 08:08:05;;;;;;;9.13;7.50;;;24.50;89.10;;;;;;5012169;28;20530;-67
2021/07/30 08:10:33;;;;;;;8.70;6.80;;;24.50;90.10;;;;;;5011927;28;20537;-67
2021/07/30 08:13:00;;;;;;;8.93;8.03;;;24.60;88.80;;;;;;5012048;28;20539;-67
2021/07/30 08:15:27;;;;;;;8.40;7.60;;;24.80;89.00;;;;;;5011822;28;20845;-68
2021/07/30 08:17:54;;;;;;;10.10;7.70;;;25.00;88.00;;;;;;5011882;28;20984;-67
2021/07/30 08:20:21;;;;;;;11.00;7.67;;;25.20;86.30;;;;;;5012095;28;20443;-67
2021/07/30 08:22:51;;;;;;;8.70;7.20;;;25.30;84.30;;;;;;5011855;28;20489;-67
2021/07/30 08:25:18;;;;;;;9.27;8.07;;;25.40;85.00;;;;;;5011868;28;20520;-68
2021/07/30 08:27:46;;;;;;;9.00;7.37;;;25.60;83.90;;;;;;5011731;28;20525;-67
2021/07/30 08:30:14;;;;;;;10.10;7.37;;;25.70;85.30;;;;;;5011739;28;20470;-67
2021/07/30 08:32:47;;;;;;;7.80;6.93;;;25.80;85.10;;;;;;5011588;28;20447;-67
2021/07/30 08:35:15;;;;;;;11.67;8.10;;;25.80;84.50;;;;;;5011900;28;20534;-67
2021/07/30 08:37:45;;;;;;;7.63;6.70;;;25.90;83.90;;;;;;5011770;28;20780;-67
2021/07/30 08:40:15;;;;;;;11.20;8.97;;;25.90;83.80;;;;;;5010931;28;20912;-67
2021/07/30 08:42:44;;;;;;;10.00;6.80;;;26.10;85.50;;;;;;5011338;28;20530;-67
2021/07/30 08:45:12;;;;;;;9.10;7.20;;;26.20;84.50;;;;;;5011420;28;20447;-67
2021/07/30 08:47:39;;;;;;;9.20;6.50;;;26.40;84.10;;;;;;5011649;28;20439;-67
2021/07/30 08:50:07;;;;;;;10.33;7.10;;;26.50;82.50;;;;;;5011648;28;20943;-67
2021/07/30 08:52:37;;;;;;;8.60;7.70;;;26.60;81.50;;;;;;5011256;28;20533;-69
2021/07/30 08:55:04;;;;;;;7.97;7.17;;;26.80;80.20;;;;;;5011407;28;20446;-67
2021/07/30 08:57:31;;;;;;;8.93;7.20;;;26.90;80.80;;;;;;5011390;28;20453;-68
2021/07/30 09:00:09;;;;;;;8.23;7.33;;;27.00;79.50;;;;;;5011135;28;20450;-67
2021/07/30 09:02:38;;;;;;;8.33;6.23;;;27.10;75.50;;;;;;5011624;28;20486;-67
2021/07/30 09:05:26;;;;;;;7.37;6.67;;;27.10;76.30;;;;;;5011430;28;20525;-67
2021/07/30 09:07:53;;;;;;;9.17;6.93;;;27.20;75.80;;;;;;5011476;28;20525;-67
2021/07/30 09:10:30;;;;;;;9.37;7.37;;;27.30;73.40;;;;;;5011150;28;20484;-68
2021/07/30 09:13:23;;;;;;;7.43;6.53;;;27.20;76.20;;;;;;5011346;28;20522;-67
2021/07/30 09:16:00;;;;;;;7.20;6.27;;;27.30;75.40;;;;;;5011022;28;20513;-68
2021/07/30 09:18:31;;;;;;;7.23;6.40;;;27.40;75.40;;;;;;5011256;28;20516;-67
2021/07/30 09:21:32;;;;;;;7.43;6.77;;;27.50;72.20;;;;;;5010807;28;20876;-67
2021/07/30 09:24:01;;;;;;;10.03;7.90;;;27.70;73.40;;;;;;5010965;28;20474;-67
2021/07/30 09:26:39;;;;;;;14.13;6.90;;;27.70;70.80;;;;;;5011094;28;20435;-66
2021/07/30 09:29:08;;;;;;;8.30;7.50;;;27.80;71.00;;;;;;5010666;28;20470;-67
2021/07/30 09:31:49;;;;;;;10.23;6.80;;;27.90;67.70;;;;;;5010956;28;20916;-67
2021/07/30 09:34:20;;;;;;;7.73;7.00;;;27.90;67.20;;;;;;5011048;28;20451;-67
2021/07/30 09:36:50;;;;;;;7.87;7.00;;;27.90;69.40;;;;;;5010970;28;20852;-67
2021/07/30 09:39:17;;;;;;;7.43;6.73;;;28.10;70.90;;;;;;5011025;28;20439;-67
2021/07/30 09:41:55;;;;;;;7.37;6.67;;;28.20;67.40;;;;;;5010676;28;20503;-67
2021/07/30 09:44:24;;;;;;;6.57;6.00;;;28.40;69.20;;;;;;5010768;28;20441;-67
2021/07/30 09:47:14;;;;;;;7.23;6.40;;;28.50;68.50;;;;;;5010821;28;20781;-68
2021/07/30 09:49:53;;;;;;;6.80;6.10;;;28.80;69.00;;;;;;5010826;28;20495;-67
2021/07/30 09:52:22;;;;;;;8.00;7.17;;;28.90;67.30;;;;;;5009475;28;20438;-67
2021/07/30 09:54:55;;;;;;;6.80;6.20;;;29.10;66.20;;;;;;5010525;28;20497;-68
2021/07/30 09:57:23;;;;;;;6.43;5.83;;;29.10;66.00;;;;;;5010385;28;20462;-67
2021/07/30 09:59:54;;;;;;;8.07;7.10;;;29.20;61.70;;;;;;5010396;28;20450;-68
2021/07/30 10:02:22;;;;;;;6.80;6.10;;;29.30;63.50;;;;;;5010234;28;20901;-67
2021/07/30 10:04:56;;;;;;;6.87;6.27;;;29.50;64.80;;;;;;5010391;28;20526;-67
2021/07/30 10:07:24;;;;;;;7.13;5.80;;;29.60;64.70;;;;;;5010554;28;20475;-68
2021/07/30 10:10:02;;;;;;;11.10;5.70;;;29.70;63.50;;;;;;5010414;28;20526;-67
2021/07/30 10:12:30;;;;;;;6.63;5.87;;;29.90;63.80;;;;;;5010488;28;20924;-67
2021/07/30 10:14:59;;;;;;;7.53;5.73;;;30.00;62.80;;;;;;5010048;28;20435;-68
2021/07/30 10:17:30;;;;;;;7.27;6.57;;;30.10;60.30;;;;;;5010279;28;20462;-67
2021/07/30 10:20:01;;;;;;;7.37;6.67;;;30.10;59.60;;;;;;5010435;28;20771;-68
2021/07/30 10:22:35;;;;;;;6.53;5.80;;;30.20;58.70;;;;;;5010354;28;20478;-69
2021/07/30 10:25:03;;;;;;;7.43;6.27;;;30.30;57.60;;;;;;5010154;28;20556;-68
2021/07/30 10:27:31;;;;;;;6.43;5.83;;;30.40;56.60;;;;;;5010036;28;20446;-67
2021/07/30 10:30:11;;;;;;;6.33;5.73;;;30.40;56.10;;;;;;5010035;28;20545;-68
2021/07/30 10:32:56;;;;;;;6.83;6.13;;;30.40;55.20;;;;;;5010411;28;20468;-67
2021/07/30 10:35:45;;;;;;;8.37;6.67;;;30.20;53.20;;;;;;5010216;28;20474;-67
2021/07/30 10:38:20;;;;;;;8.00;6.23;;;30.00;54.20;;;;;;5010186;28;20450;-67
2021/07/30 10:41:21;;;;;;;7.30;5.80;;;29.90;54.60;;;;;;5010087;28;20446;-67
2021/07/30 10:44:10;;;;;;;7.10;5.80;;;29.90;54.20;;;;;;5010237;28;20831;-67
2021/07/30 10:46:41;;;;;;;6.83;6.13;;;30.00;54.10;;;;;;5010125;28;20462;-67
2021/07/30 10:49:45;;;;;;;7.93;6.60;;;30.00;54.40;;;;;;5009978;28;20443;-67
2021/07/30 10:53:03;;;;;;;6.67;5.97;;;30.00;54.20;;;;;;5009615;28;20435;-67
2021/07/30 10:55:42;;;;;;;6.90;5.83;;;30.10;57.20;;;;;;5009340;28;20480;-68
2021/07/30 10:58:09;;;;;;;6.20;5.63;;;30.20;55.30;;;;;;5009792;28;20442;-67
2021/07/30 11:00:51;;;;;;;8.30;6.10;;;30.40;55.40;;;;;;5009917;28;20518;-67
2021/07/30 11:03:18;;;;;;;6.93;6.17;;;30.70;56.10;;;;;;5011124;28;20479;-67
2021/07/30 11:06:11;;;;;;;6.67;6.07;;;31.00;57.20;;;;;;5013312;28;20871;-67
2021/07/30 11:09:21;;;;;;;7.50;6.03;;;31.20;53.20;;;;;;5013129;28;20435;-67
2021/07/30 11:11:50;;;;;;;7.90;5.53;;;31.20;51.80;;;;;;5053576;28;20473;-67
2021/07/30 11:14:19;;;;;;;7.57;6.50;;;31.20;50.50;;;;;;5052819;28;20455;-68
2021/07/30 11:16:47;;;;;;;9.70;6.03;;;31.10;49.00;;;;;;5031211;28;20842;-67
2021/07/30 11:19:16;;;;;;;8.13;5.90;;;31.20;50.80;;;;;;5012424;28;20446;-67
2021/07/30 11:21:43;;;;;;;6.90;6.20;;;31.30;52.00;;;;;;5012711;28;20490;-67
2021/07/30 11:24:11;;;;;;;5.33;4.83;;;31.40;49.30;;;;;;5012140;28;20610;-67
2021/07/30 11:26:41;;;;;;;6.87;5.27;;;31.30;49.40;;;;;;5012692;28;20993;-67
2021/07/30 11:29:09;;;;;;;7.40;6.40;;;31.40;49.70;;;;;;5011736;28;21022;-67
2021/07/30 11:31:38;;;;;;;7.13;6.00;;;31.40;50.60;;;;;;5012646;28;20529;-67
2021/07/30 11:34:10;;;;;;;6.90;5.60;;;31.60;52.00;;;;;;5011928;28;20525;-68
2021/07/30 11:36:37;;;;;;;6.30;5.70;;;31.80;52.60;;;;;;5011892;28;20467;-67
2021/07/30 11:39:04;;;;;;;6.83;6.10;;;31.90;52.60;;;;;;5012372;28;20443;-67
2021/07/30 11:41:31;;;;;;;6.73;5.90;;;32.10;51.70;;;;;;5012305;28;20483;-67
2021/07/30 11:44:02;;;;;;;6.80;5.77;;;32.30;51.90;;;;;;5011955;28;20479;-67
2021/07/30 11:46:31;;;;;;;7.40;6.60;;;32.40;50.90;;;;;;5005909;28;20439;-69
2021/07/30 11:48:59;;;;;;;6.07;5.50;;;32.60;49.50;;;;;;5012048;28;20522;-68
2021/07/30 11:51:27;;;;;;;7.80;6.40;;;32.70;48.90;;;;;;5011524;28;20482;-67
2021/07/30 11:53:55;;;;;;;6.80;6.20;;;32.80;49.90;;;;;;5012204;28;20445;-67
2021/07/30 11:56:24;;;;;;;6.43;5.80;;;33.00;48.40;;;;;;5012353;28;20537;-70
2021/07/30 11:58:56;;;;;;;6.67;6.07;;;33.10;46.30;;;;;;5012369;28;20445;-68
2021/07/30 12:01:24;;;;;;;6.40;5.80;;;33.00;44.00;;;;;;4996139;28;20509;-68
2021/07/30 12:04:08;;;;;;;6.30;5.47;;;32.70;44.70;;;;;;4992788;28;20634;-67
2021/07/30 12:06:39;;;;;;;6.37;5.77;;;32.60;45.30;;;;;;4992596;28;20436;-67
2021/07/30 12:09:07;;;;;;;6.20;5.40;;;32.30;45.60;;;;;;4992501;28;20867;-67
2021/07/30 12:11:43;;;;;;;6.57;5.97;;;32.30;46.80;;;;;;4992724;28;20797;-67
2021/07/30 12:14:11;;;;;;;6.70;5.10;;;32.30;48.20;;;;;;4991904;28;20435;-68
2021/07/30 12:16:41;;;;;;;5.87;5.13;;;32.30;48.10;;;;;;4992301;28;20527;-67
2021/07/30 12:19:08;;;;;;;6.50;5.90;;;32.20;46.50;;;;;;4992270;28;20440;-67
2021/07/30 12:21:54;;;;;;;6.63;5.63;;;32.20;46.60;;;;;;4992262;28;20444;-68
2021/07/30 12:24:23;;;;;;;6.90;6.20;;;32.10;48.00;;;;;;4992177;28;20518;-68
2021/07/30 12:26:50;;;;;;;6.40;5.43;;;32.00;50.10;;;;;;4992227;28;20455;-68
2021/07/30 12:29:36;;;;;;;5.93;5.40;;;32.10;50.00;;;;;;4992108;28;20568;-67
2021/07/30 12:32:18;;;;;;;6.37;5.77;;;32.20;51.70;;;;;;4992450;28;20530;-67
2021/07/30 12:34:56;;;;;;;6.57;5.97;;;32.30;49.10;;;;;;4992508;28;20946;-67
2021/07/30 12:37:27;;;;;;;6.00;5.40;;;32.30;51.30;;;;;;4992251;28;20435;-68
2021/07/30 12:39:56;;;;;;;6.63;6.03;;;32.30;50.30;;;;;;4992226;28;20876;-69
2021/07/30 12:42:29;;;;;;;6.63;5.93;;;32.40;50.50;;;;;;4991902;28;20566;-68
2021/07/30 12:45:05;;;;;;;7.83;5.93;;;32.40;49.10;;;;;;4992099;28;20448;-67
2021/07/30 12:47:39;;;;;;;6.33;5.50;;;32.40;48.50;;;;;;4992077;28;20459;-67
2021/07/30 12:50:28;;;;;;;6.57;5.97;;;32.30;44.50;;;;;;4992090;28;20446;-67
2021/07/30 12:53:13;;;;;;;5.80;5.27;;;32.30;47.10;;;;;;4988986;28;20513;-67
2021/07/30 12:56:02;;;;;;;6.10;5.50;;;32.30;47.60;;;;;;4992013;28;20468;-67
2021/07/30 12:58:33;;;;;;;6.90;5.47;;;32.30;45.50;;;;;;4991657;28;20448;-68